Terminal Aerodrome Forecast
Issued by NWS New Orleans/Baton Rouge, LA

Home | Current Version | Previous Version | Text Only | Print | Product List | Glossary On
Versions: 1 2 3 4 5 6 7 8 9 10 11 12 13 14 15 16
000
FTUS44 KLIX 221126
TAFBTR
TAF
KBTR 221126Z 2212/2312 00000KT 5SM BR SCT025
     FM221300 VRB03KT P6SM SCT025
     FM221600 VRB03KT P6SM VCTS SCT030CB BKN100
     FM222100 15004KT P6SM SCT030 BKN100 PROB30 2221/2224 4SM -TSRA
      BKN025CB
     FM230200 00000KT P6SM FEW035=

USA.gov is the U.S. government's official web portal to all federal, state and local government web resources and services.